Terminal Aerodrome Forecast
Issued by NWS Charleston, WV

Current Version | Previous Version | Text Only | Print | Product List | Glossary Off
Versions: 1 2 3 4 5 6 7 8 9 10 11 12 13 14 15 16 17 18 19 20 21 22 23 24

000
FTUS41 KRLX 181100
TAFHTS
TAF
KHTS 181135Z 1812/1912 VRB03KT P6SM SCT250
     FM182000 04006KT P6SM SCT250
     FM190300 07004KT P6SM FEW050
     FM190900 11007KT P6SM BKN050=

USA.gov is the U.S. government's official web portal to all federal, state and local government web resources and services.